Monroe, Iowa
Current Conditions -  °F | °C
As of 10:15 PM on Thursday 20 Nov 2014 (Local Time) from KPEA Reporting Station
Clear Clear  
Wind Chill: 16°   Ceiling: Unl
Heat Index: 16°   Visibility: 10mi
Dew Point: 10°   Wind: 0mph
Humidity: 76%   Direction: NA
Pressure: 30.32"   Gusts: NA
Location:  41.52°N, 93.1°W
Report Text: KPEA 210415Z AUTO 00000KT 10SM CLR M09/M12 A3032 RMK AO2 T10891124
Loading
Personal Weather Stations






























Interactive Weather Map New forecast layout! Learn more

10-Day Weather Forecast

Advertisements
Track Severe Weather on mobile